sensor_id;sensor_type;location;lat;lon;timestamp;pressure;altitude;pressure_sealevel;temperature;humidity
62928;BME280;51070;52.236;-0.892;2023-03-04T00:02:12;102264.42;;;5.50;69.94
62928;BME280;51070;52.236;-0.892;2023-03-04T00:04:37;102267.27;;;5.49;70.04
62928;BME280;51070;52.236;-0.892;2023-03-04T00:07:02;102266.05;;;5.49;69.95
62928;BME280;51070;52.236;-0.892;2023-03-04T00:09:27;102268.70;;;5.50;70.07
62928;BME280;51070;52.236;-0.892;2023-03-04T00:11:53;102268.58;;;5.51;70.31
62928;BME280;51070;52.236;-0.892;2023-03-04T00:14:18;102265.02;;;5.49;70.26
62928;BME280;51070;52.236;-0.892;2023-03-04T00:16:44;102260.32;;;5.48;70.14
62928;BME280;51070;52.236;-0.892;2023-03-04T00:19:09;102260.65;;;5.48;70.17
62928;BME280;51070;52.236;-0.892;2023-03-04T00:21:34;102263.04;;;5.50;70.32
62928;BME280;51070;52.236;-0.892;2023-03-04T00:24:00;102261.30;;;5.52;70.27
62928;BME280;51070;52.236;-0.892;2023-03-04T00:26:25;102261.59;;;5.54;70.03
62928;BME280;51070;52.236;-0.892;2023-03-04T00:28:50;102262.98;;;5.54;70.23
62928;BME280;51070;52.236;-0.892;2023-03-04T00:31:15;102263.05;;;5.55;70.09
62928;BME280;51070;52.236;-0.892;2023-03-04T00:33:40;102266.55;;;5.53;69.97
62928;BME280;51070;52.236;-0.892;2023-03-04T00:36:08;102263.11;;;5.51;69.68
62928;BME280;51070;52.236;-0.892;2023-03-04T00:38:33;102262.50;;;5.47;69.61
62928;BME280;51070;52.236;-0.892;2023-03-04T00:40:59;102262.16;;;5.45;69.77
62928;BME280;51070;52.236;-0.892;2023-03-04T00:43:24;102259.10;;;5.43;69.91
62928;BME280;51070;52.236;-0.892;2023-03-04T00:45:49;102259.80;;;5.41;69.94
62928;BME280;51070;52.236;-0.892;2023-03-04T00:48:14;102260.54;;;5.39;70.14
62928;BME280;51070;52.236;-0.892;2023-03-04T00:50:40;102260.94;;;5.38;70.51
62928;BME280;51070;52.236;-0.892;2023-03-04T00:53:06;102258.27;;;5.37;70.42
62928;BME280;51070;52.236;-0.892;2023-03-04T00:55:31;102261.39;;;5.36;70.61
62928;BME280;51070;52.236;-0.892;2023-03-04T00:57:57;102266.45;;;5.34;70.66
62928;BME280;51070;52.236;-0.892;2023-03-04T01:00:22;102265.41;;;5.34;70.59
62928;BME280;51070;52.236;-0.892;2023-03-04T01:02:47;102269.09;;;5.35;70.64
62928;BME280;51070;52.236;-0.892;2023-03-04T01:05:13;102268.31;;;5.38;70.81
62928;BME280;51070;52.236;-0.892;2023-03-04T01:07:38;102270.40;;;5.43;70.88
62928;BME280;51070;52.236;-0.892;2023-03-04T01:10:04;102272.14;;;5.48;70.79
62928;BME280;51070;52.236;-0.892;2023-03-04T01:12:30;102271.86;;;5.51;70.79
62928;BME280;51070;52.236;-0.892;2023-03-04T01:14:55;102268.44;;;5.51;70.46
62928;BME280;51070;52.236;-0.892;2023-03-04T01:17:21;102270.13;;;5.51;70.30
62928;BME280;51070;52.236;-0.892;2023-03-04T01:19:46;102269.27;;;5.51;70.32
62928;BME280;51070;52.236;-0.892;2023-03-04T01:22:11;102266.61;;;5.49;70.21
62928;BME280;51070;52.236;-0.892;2023-03-04T01:24:39;102268.14;;;5.47;70.05
62928;BME280;51070;52.236;-0.892;2023-03-04T01:27:04;102262.98;;;5.44;70.07
62928;BME280;51070;52.236;-0.892;2023-03-04T01:29:29;102268.79;;;5.44;69.87
62928;BME280;51070;52.236;-0.892;2023-03-04T01:31:55;102265.63;;;5.43;70.13
62928;BME280;51070;52.236;-0.892;2023-03-04T01:34:20;102265.27;;;5.43;69.99
62928;BME280;51070;52.236;-0.892;2023-03-04T01:36:45;102261.46;;;5.43;70.08
62928;BME280;51070;52.236;-0.892;2023-03-04T01:39:10;102260.38;;;5.42;69.85
62928;BME280;51070;52.236;-0.892;2023-03-04T01:41:36;102256.23;;;5.39;69.80
62928;BME280;51070;52.236;-0.892;2023-03-04T01:44:01;102256.23;;;5.37;69.94
62928;BME280;51070;52.236;-0.892;2023-03-04T01:46:26;102254.04;;;5.36;69.85
62928;BME280;51070;52.236;-0.892;2023-03-04T01:48:52;102254.32;;;5.35;69.72
62928;BME280;51070;52.236;-0.892;2023-03-04T01:51:17;102255.16;;;5.32;69.63
62928;BME280;51070;52.236;-0.892;2023-03-04T01:53:44;102250.42;;;5.31;69.70
62928;BME280;51070;52.236;-0.892;2023-03-04T01:56:12;102246.39;;;5.32;69.68
62928;BME280;51070;52.236;-0.892;2023-03-04T01:58:39;102246.24;;;5.35;69.74
62928;BME280;51070;52.236;-0.892;2023-03-04T02:01:04;102243.83;;;5.38;69.77
62928;BME280;51070;52.236;-0.892;2023-03-04T02:03:29;102238.36;;;5.41;69.84
62928;BME280;51070;52.236;-0.892;2023-03-04T02:05:55;102233.28;;;5.42;69.57
62928;BME280;51070;52.236;-0.892;2023-03-04T02:08:21;102228.37;;;5.42;69.57
62928;BME280;51070;52.236;-0.892;2023-03-04T02:10:47;102226.56;;;5.41;69.55
62928;BME280;51070;52.236;-0.892;2023-03-04T02:13:13;102224.23;;;5.40;69.49
62928;BME280;51070;52.236;-0.892;2023-03-04T02:15:39;102222.66;;;5.40;69.59
62928;BME280;51070;52.236;-0.892;2023-03-04T02:18:18;102218.48;;;5.39;69.52
62928;BME280;51070;52.236;-0.892;2023-03-04T02:20:56;102217.73;;;5.36;69.51
62928;BME280;51070;52.236;-0.892;2023-03-04T02:28:32;102214.10;;;5.31;69.69
62928;BME280;51070;52.236;-0.892;2023-03-04T02:30:58;102211.49;;;5.29;69.40
62928;BME280;51070;52.236;-0.892;2023-03-04T02:33:23;102209.25;;;5.26;69.64
62928;BME280;51070;52.236;-0.892;2023-03-04T02:35:48;102209.92;;;5.24;69.63
62928;BME280;51070;52.236;-0.892;2023-03-04T02:38:14;102206.89;;;5.22;69.62
62928;BME280;51070;52.236;-0.892;2023-03-04T02:40:40;102207.14;;;5.23;69.82
62928;BME280;51070;52.236;-0.892;2023-03-04T02:43:08;102208.87;;;5.26;69.92
62928;BME280;51070;52.236;-0.892;2023-03-04T02:45:34;102210.96;;;5.28;69.81
62928;BME280;51070;52.236;-0.892;2023-03-04T02:48:00;102213.27;;;5.29;69.63
62928;BME280;51070;52.236;-0.892;2023-03-04T02:50:26;102210.86;;;5.29;69.49
62928;BME280;51070;52.236;-0.892;2023-03-04T02:52:53;102206.58;;;5.29;69.31
62928;BME280;51070;52.236;-0.892;2023-03-04T02:55:18;102201.75;;;5.29;69.17
62928;BME280;51070;52.236;-0.892;2023-03-04T02:57:44;102203.10;;;5.28;69.05
62928;BME280;51070;52.236;-0.892;2023-03-04T03:00:09;102198.60;;;5.28;69.04
62928;BME280;51070;52.236;-0.892;2023-03-04T03:02:35;102196.83;;;5.27;69.08
62928;BME280;51070;52.236;-0.892;2023-03-04T03:05:00;102197.42;;;5.26;69.07
62928;BME280;51070;52.236;-0.892;2023-03-04T03:07:25;102197.61;;;5.24;68.84
62928;BME280;51070;52.236;-0.892;2023-03-04T03:09:50;102201.35;;;5.21;68.99
62928;BME280;51070;52.236;-0.892;2023-03-04T03:12:16;102199.99;;;5.20;68.91
62928;BME280;51070;52.236;-0.892;2023-03-04T03:14:41;102200.15;;;5.17;69.18
62928;BME280;51070;52.236;-0.892;2023-03-04T03:17:06;102200.15;;;5.15;68.95
62928;BME280;51070;52.236;-0.892;2023-03-04T03:19:32;102200.52;;;5.13;68.95
62928;BME280;51070;52.236;-0.892;2023-03-04T03:21:57;102197.10;;;5.11;69.20
62928;BME280;51070;52.236;-0.892;2023-03-04T03:24:22;102196.34;;;5.07;69.17
62928;BME280;51070;52.236;-0.892;2023-03-04T03:26:48;102194.23;;;5.05;69.21
62928;BME280;51070;52.236;-0.892;2023-03-04T03:29:13;102192.70;;;5.03;69.21
62928;BME280;51070;52.236;-0.892;2023-03-04T03:31:38;102189.34;;;5.01;69.57
62928;BME280;51070;52.236;-0.892;2023-03-04T03:34:04;102190.58;;;5.02;69.53
62928;BME280;51070;52.236;-0.892;2023-03-04T03:36:29;102192.73;;;5.03;69.51
62928;BME280;51070;52.236;-0.892;2023-03-04T03:38:54;102191.56;;;5.06;69.67
62928;BME280;51070;52.236;-0.892;2023-03-04T03:41:20;102195.25;;;5.09;69.74
62928;BME280;51070;52.236;-0.892;2023-03-04T03:43:45;102190.27;;;5.11;69.71
62928;BME280;51070;52.236;-0.892;2023-03-04T03:46:10;102187.29;;;5.13;69.85
62928;BME280;51070;52.236;-0.892;2023-03-04T03:48:35;102191.03;;;5.14;69.70
62928;BME280;51070;52.236;-0.892;2023-03-04T03:51:01;102192.02;;;5.16;69.63
62928;BME280;51070;52.236;-0.892;2023-03-04T03:53:26;102189.52;;;5.15;69.45
62928;BME280;51070;52.236;-0.892;2023-03-04T03:55:51;102187.25;;;5.14;69.62
62928;BME280;51070;52.236;-0.892;2023-03-04T03:58:16;102184.55;;;5.13;69.56
62928;BME280;51070;52.236;-0.892;2023-03-04T04:00:41;102185.95;;;5.11;69.51
62928;BME280;51070;52.236;-0.892;2023-03-04T04:03:08;102185.41;;;5.08;69.71
62928;BME280;51070;52.236;-0.892;2023-03-04T04:05:33;102182.29;;;5.05;69.66
62928;BME280;51070;52.236;-0.892;2023-03-04T04:07:58;102183.27;;;5.02;69.77
62928;BME280;51070;52.236;-0.892;2023-03-04T04:10:23;102182.31;;;5.01;69.92
62928;BME280;51070;52.236;-0.892;2023-03-04T04:12:49;102187.13;;;4.99;69.79
62928;BME280;51070;52.236;-0.892;2023-03-04T04:15:14;102182.31;;;4.97;69.90
62928;BME280;51070;52.236;-0.892;2023-03-04T04:17:39;102182.13;;;4.94;70.07
62928;BME280;51070;52.236;-0.892;2023-03-04T04:20:06;102181.59;;;4.92;70.14
62928;BME280;51070;52.236;-0.892;2023-03-04T04:22:32;102178.16;;;4.90;70.29
62928;BME280;51070;52.236;-0.892;2023-03-04T04:24:57;102183.09;;;4.89;70.23
62928;BME280;51070;52.236;-0.892;2023-03-04T04:27:22;102181.48;;;4.91;70.49
62928;BME280;51070;52.236;-0.892;2023-03-04T04:29:47;102183.48;;;4.92;70.55
62928;BME280;51070;52.236;-0.892;2023-03-04T04:32:13;102181.36;;;4.93;70.37
62928;BME280;51070;52.236;-0.892;2023-03-04T04:34:38;102183.77;;;4.96;70.44
62928;BME280;51070;52.236;-0.892;2023-03-04T04:37:04;102184.08;;;4.98;70.07
62928;BME280;51070;52.236;-0.892;2023-03-04T04:39:29;102187.33;;;5.00;70.33
62928;BME280;51070;52.236;-0.892;2023-03-04T04:41:54;102188.35;;;5.02;70.25
62928;BME280;51070;52.236;-0.892;2023-03-04T04:44:20;102190.55;;;5.04;70.46
62928;BME280;51070;52.236;-0.892;2023-03-04T04:46:45;102191.38;;;5.05;70.43
62928;BME280;51070;52.236;-0.892;2023-03-04T04:49:10;102192.27;;;5.06;70.38
62928;BME280;51070;52.236;-0.892;2023-03-04T04:51:36;102197.42;;;5.06;70.43
62928;BME280;51070;52.236;-0.892;2023-03-04T04:54:02;102196.53;;;5.03;70.40
62928;BME280;51070;52.236;-0.892;2023-03-04T04:56:28;102198.41;;;5.01;70.66
62928;BME280;51070;52.236;-0.892;2023-03-04T04:58:55;102198.54;;;4.99;70.61
62928;BME280;51070;52.236;-0.892;2023-03-04T05:01:21;102202.63;;;4.96;70.64
62928;BME280;51070;52.236;-0.892;2023-03-04T05:03:46;102199.78;;;4.93;70.67
62928;BME280;51070;52.236;-0.892;2023-03-04T05:06:14;102199.96;;;4.90;70.67
62928;BME280;51070;52.236;-0.892;2023-03-04T05:08:39;102199.00;;;4.89;70.83
62928;BME280;51070;52.236;-0.892;2023-03-04T05:11:05;102198.02;;;4.88;70.81
62928;BME280;51070;52.236;-0.892;2023-03-04T05:13:31;102202.02;;;4.86;70.82
62928;BME280;51070;52.236;-0.892;2023-03-04T05:15:56;102202.60;;;4.85;70.95
62928;BME280;51070;52.236;-0.892;2023-03-04T05:18:22;102204.55;;;4.84;70.90
62928;BME280;51070;52.236;-0.892;2023-03-04T05:20:54;102202.92;;;4.85;71.18
62928;BME280;51070;52.236;-0.892;2023-03-04T05:23:20;102203.45;;;4.87;71.48
62928;BME280;51070;52.236;-0.892;2023-03-04T05:25:45;102208.13;;;4.90;71.10
62928;BME280;51070;52.236;-0.892;2023-03-04T05:28:11;102208.31;;;4.92;71.15
62928;BME280;51070;52.236;-0.892;2023-03-04T05:30:37;102208.39;;;4.95;71.14
62928;BME280;51070;52.236;-0.892;2023-03-04T05:33:02;102212.98;;;4.97;71.11
62928;BME280;51070;52.236;-0.892;2023-03-04T05:35:27;102212.83;;;4.99;71.32
62928;BME280;51070;52.236;-0.892;2023-03-04T05:37:53;102210.70;;;4.98;71.07
62928;BME280;51070;52.236;-0.892;2023-03-04T05:40:18;102214.39;;;4.97;71.01
62928;BME280;51070;52.236;-0.892;2023-03-04T05:42:44;102215.42;;;4.97;70.88
62928;BME280;51070;52.236;-0.892;2023-03-04T05:45:09;102217.64;;;4.97;70.94
62928;BME280;51070;52.236;-0.892;2023-03-04T05:47:35;102218.42;;;4.96;71.06
62928;BME280;51070;52.236;-0.892;2023-03-04T05:50:00;102216.41;;;4.95;71.10
62928;BME280;51070;52.236;-0.892;2023-03-04T05:52:25;102217.48;;;4.93;71.04
62928;BME280;51070;52.236;-0.892;2023-03-04T05:54:51;102219.61;;;4.92;71.34
62928;BME280;51070;52.236;-0.892;2023-03-04T05:57:16;102220.52;;;4.90;71.08
62928;BME280;51070;52.236;-0.892;2023-03-04T05:59:41;102218.29;;;4.88;71.00
62928;BME280;51070;52.236;-0.892;2023-03-04T06:02:06;102212.85;;;4.87;71.12
62928;BME280;51070;52.236;-0.892;2023-03-04T06:04:32;102209.56;;;4.86;71.25
62928;BME280;51070;52.236;-0.892;2023-03-04T06:06:57;102208.70;;;4.86;71.19
62928;BME280;51070;52.236;-0.892;2023-03-04T06:09:22;102210.84;;;4.85;71.27
62928;BME280;51070;52.236;-0.892;2023-03-04T06:11:48;102207.16;;;4.84;71.07
62928;BME280;51070;52.236;-0.892;2023-03-04T06:14:13;102205.89;;;4.83;71.30
62928;BME280;51070;52.236;-0.892;2023-03-04T06:16:39;102204.73;;;4.84;71.49
62928;BME280;51070;52.236;-0.892;2023-03-04T06:19:04;102201.45;;;4.85;71.15
62928;BME280;51070;52.236;-0.892;2023-03-04T06:21:29;102205.95;;;4.88;71.42
62928;BME280;51070;52.236;-0.892;2023-03-04T06:23:55;102202.69;;;4.90;71.36
62928;BME280;51070;52.236;-0.892;2023-03-04T06:26:20;102206.69;;;4.93;71.18
62928;BME280;51070;52.236;-0.892;2023-03-04T06:28:45;102209.52;;;4.97;71.27
62928;BME280;51070;52.236;-0.892;2023-03-04T06:31:11;102209.69;;;4.99;71.19
62928;BME280;51070;52.236;-0.892;2023-03-04T06:33:36;102209.22;;;5.01;71.04
62928;BME280;51070;52.236;-0.892;2023-03-04T06:36:01;102212.33;;;5.02;70.98
62928;BME280;51070;52.236;-0.892;2023-03-04T06:38:26;102213.24;;;5.00;70.94
62928;BME280;51070;52.236;-0.892;2023-03-04T06:40:52;102219.88;;;5.00;71.00
62928;BME280;51070;52.236;-0.892;2023-03-04T06:43:18;102221.90;;;4.99;70.89
62928;BME280;51070;52.236;-0.892;2023-03-04T06:45:43;102222.16;;;4.98;71.05
62928;BME280;51070;52.236;-0.892;2023-03-04T06:48:09;102221.01;;;4.97;71.08
62928;BME280;51070;52.236;-0.892;2023-03-04T06:50:34;102222.39;;;4.95;70.97
62928;BME280;51070;52.236;-0.892;2023-03-04T06:53:00;102220.96;;;4.92;71.27
62928;BME280;51070;52.236;-0.892;2023-03-04T06:55:25;102222.63;;;4.89;71.02
62928;BME280;51070;52.236;-0.892;2023-03-04T06:57:50;102223.15;;;4.87;71.24
62928;BME280;51070;52.236;-0.892;2023-03-04T07:00:16;102225.45;;;4.86;71.35
62928;BME280;51070;52.236;-0.892;2023-03-04T07:02:41;102227.63;;;4.85;71.38
62928;BME280;51070;52.236;-0.892;2023-03-04T07:05:07;102228.42;;;4.84;71.42
62928;BME280;51070;52.236;-0.892;2023-03-04T07:07:33;102229.45;;;4.82;71.33
62928;BME280;51070;52.236;-0.892;2023-03-04T07:09:58;102228.85;;;4.83;71.55
62928;BME280;51070;52.236;-0.892;2023-03-04T07:12:24;102229.60;;;4.84;71.49
62928;BME280;51070;52.236;-0.892;2023-03-04T07:14:49;102231.16;;;4.87;71.58
62928;BME280;51070;52.236;-0.892;2023-03-04T07:17:14;102234.14;;;4.89;71.25
62928;BME280;51070;52.236;-0.892;2023-03-04T07:19:39;102233.98;;;4.92;71.13
62928;BME280;51070;52.236;-0.892;2023-03-04T07:22:06;102237.77;;;4.96;71.29
62928;BME280;51070;52.236;-0.892;2023-03-04T07:24:31;102237.94;;;4.98;70.96
62928;BME280;51070;52.236;-0.892;2023-03-04T07:26:56;102237.94;;;5.00;71.19
62928;BME280;51070;52.236;-0.892;2023-03-04T07:29:21;102238.36;;;5.01;71.05
62928;BME280;51070;52.236;-0.892;2023-03-04T07:31:47;102240.70;;;5.03;71.18
62928;BME280;51070;52.236;-0.892;2023-03-04T07:34:12;102242.33;;;5.04;71.05
62928;BME280;51070;52.236;-0.892;2023-03-04T07:36:38;102244.44;;;5.02;70.77
62928;BME280;51070;52.236;-0.892;2023-03-04T07:39:04;102248.61;;;5.01;70.69
62928;BME280;51070;52.236;-0.892;2023-03-04T07:41:29;102250.14;;;4.99;70.68
62928;BME280;51070;52.236;-0.892;2023-03-04T07:43:56;102246.91;;;4.97;70.75
62928;BME280;51070;52.236;-0.892;2023-03-04T07:46:21;102252.92;;;4.97;70.82
62928;BME280;51070;52.236;-0.892;2023-03-04T07:48:47;102249.98;;;4.97;70.93
62928;BME280;51070;52.236;-0.892;2023-03-04T07:51:13;102255.64;;;4.97;71.06
62928;BME280;51070;52.236;-0.892;2023-03-04T07:53:40;102254.60;;;4.97;70.87
62928;BME280;51070;52.236;-0.892;2023-03-04T07:56:06;102255.14;;;4.97;70.95
62928;BME280;51070;52.236;-0.892;2023-03-04T07:58:32;102258.56;;;4.97;70.73
62928;BME280;51070;52.236;-0.892;2023-03-04T08:00:57;102262.33;;;4.99;70.81
62928;BME280;51070;52.236;-0.892;2023-03-04T08:03:23;102262.61;;;5.00;70.80
62928;BME280;51070;52.236;-0.892;2023-03-04T08:05:49;102265.06;;;5.03;70.75
62928;BME280;51070;52.236;-0.892;2023-03-04T08:08:14;102268.27;;;5.07;70.72
62928;BME280;51070;52.236;-0.892;2023-03-04T08:10:39;102269.36;;;5.10;70.69
62928;BME280;51070;52.236;-0.892;2023-03-04T08:13:05;102269.35;;;5.12;70.46
62928;BME280;51070;52.236;-0.892;2023-03-04T08:15:30;102271.34;;;5.14;70.49
62928;BME280;51070;52.236;-0.892;2023-03-04T08:17:57;102271.33;;;5.14;70.19
62928;BME280;51070;52.236;-0.892;2023-03-04T08:20:22;102274.93;;;5.16;70.43
62928;BME280;51070;52.236;-0.892;2023-03-04T08:22:48;102276.31;;;5.18;70.44
62928;BME280;51070;52.236;-0.892;2023-03-04T08:25:13;102275.17;;;5.19;70.23
62928;BME280;51070;52.236;-0.892;2023-03-04T08:27:38;102276.93;;;5.17;69.99
62928;BME280;51070;52.236;-0.892;2023-03-04T08:30:04;102275.66;;;5.14;69.76
62928;BME280;51070;52.236;-0.892;2023-03-04T08:32:29;102274.63;;;5.12;69.84
62928;BME280;51070;52.236;-0.892;2023-03-04T08:34:55;102273.65;;;5.11;69.99
62928;BME280;51070;52.236;-0.892;2023-03-04T08:37:21;102275.05;;;5.11;70.18
62928;BME280;51070;52.236;-0.892;2023-03-04T08:39:46;102277.86;;;5.12;70.16
62928;BME280;51070;52.236;-0.892;2023-03-04T08:42:12;102273.61;;;5.12;69.92
62928;BME280;51070;52.236;-0.892;2023-03-04T08:44:37;102275.49;;;5.14;69.74
62928;BME280;51070;52.236;-0.892;2023-03-04T08:47:03;102277.73;;;5.19;69.51
62928;BME280;51070;52.236;-0.892;2023-03-04T08:49:28;102274.17;;;5.21;69.46
62928;BME280;51070;52.236;-0.892;2023-03-04T08:51:53;102275.23;;;5.26;69.34
62928;BME280;51070;52.236;-0.892;2023-03-04T08:54:19;102270.08;;;5.30;69.39
62928;BME280;51070;52.236;-0.892;2023-03-04T08:56:44;102271.70;;;5.35;69.30
62928;BME280;51070;52.236;-0.892;2023-03-04T08:59:09;102270.28;;;5.39;69.00
62928;BME280;51070;52.236;-0.892;2023-03-04T09:01:35;102270.20;;;5.43;69.07
62928;BME280;51070;52.236;-0.892;2023-03-04T09:04:00;102273.39;;;5.46;68.75
62928;BME280;51070;52.236;-0.892;2023-03-04T09:06:25;102268.94;;;5.46;68.40
62928;BME280;51070;52.236;-0.892;2023-03-04T09:08:51;102271.25;;;5.47;68.36
62928;BME280;51070;52.236;-0.892;2023-03-04T09:11:16;102267.80;;;5.49;68.33
62928;BME280;51070;52.236;-0.892;2023-03-04T09:13:41;102268.42;;;5.51;68.29
62928;BME280;51070;52.236;-0.892;2023-03-04T09:16:10;102269.71;;;5.52;68.37
62928;BME280;51070;52.236;-0.892;2023-03-04T09:18:36;102268.65;;;5.54;68.15
62928;BME280;51070;52.236;-0.892;2023-03-04T09:21:03;102269.84;;;5.56;67.83
62928;BME280;51070;52.236;-0.892;2023-03-04T09:23:29;102268.40;;;5.55;67.55
62928;BME280;51070;52.236;-0.892;2023-03-04T09:25:54;102268.73;;;5.55;67.69
62928;BME280;51070;52.236;-0.892;2023-03-04T09:28:19;102270.26;;;5.55;67.61
62928;BME280;51070;52.236;-0.892;2023-03-04T09:30:44;102273.57;;;5.55;67.90
62928;BME280;51070;52.236;-0.892;2023-03-04T09:33:10;102274.02;;;5.57;67.56
62928;BME280;51070;52.236;-0.892;2023-03-04T09:35:35;102276.30;;;5.57;67.59
62928;BME280;51070;52.236;-0.892;2023-03-04T09:38:00;102272.93;;;5.60;67.67
62928;BME280;51070;52.236;-0.892;2023-03-04T09:40:29;102269.34;;;5.65;67.88
62928;BME280;51070;52.236;-0.892;2023-03-04T09:42:58;102268.39;;;5.73;67.76
62928;BME280;51070;52.236;-0.892;2023-03-04T09:45:26;102267.85;;;5.79;67.62
62928;BME280;51070;52.236;-0.892;2023-03-04T09:47:53;102265.90;;;5.85;67.14
62928;BME280;51070;52.236;-0.892;2023-03-04T09:50:20;102268.02;;;5.90;67.39
62928;BME280;51070;52.236;-0.892;2023-03-04T10:02:38;102269.15;;;6.10;66.46
62928;BME280;51070;52.236;-0.892;2023-03-04T10:05:09;102267.22;;;6.09;66.03
62928;BME280;51070;52.236;-0.892;2023-03-04T10:07:37;102268.02;;;6.11;65.88
62928;BME280;51070;52.236;-0.892;2023-03-04T10:12:33;102264.17;;;6.12;65.87
62928;BME280;51070;52.236;-0.892;2023-03-04T10:15:16;102263.48;;;6.14;65.67
62928;BME280;51070;52.236;-0.892;2023-03-04T10:17:46;102261.71;;;6.13;65.53
62928;BME280;51070;52.236;-0.892;2023-03-04T10:20:18;102260.50;;;6.13;65.12
62928;BME280;51070;52.236;-0.892;2023-03-04T10:22:46;102261.50;;;6.15;64.85
62928;BME280;51070;52.236;-0.892;2023-03-04T10:25:25;102263.07;;;6.18;64.87
62928;BME280;51070;52.236;-0.892;2023-03-04T10:27:55;102258.80;;;6.25;64.66
62928;BME280;51070;52.236;-0.892;2023-03-04T10:30:36;102258.09;;;6.39;64.52
62928;BME280;51070;52.236;-0.892;2023-03-04T10:33:11;102256.65;;;6.54;63.84
62928;BME280;51070;52.236;-0.892;2023-03-04T10:35:37;102249.65;;;6.66;63.55
62928;BME280;51070;52.236;-0.892;2023-03-04T10:38:03;102248.11;;;6.78;63.11
62928;BME280;51070;52.236;-0.892;2023-03-04T10:40:28;102248.61;;;6.90;63.03
62928;BME280;51070;52.236;-0.892;2023-03-04T10:43:00;102248.04;;;7.02;62.29
62928;BME280;51070;52.236;-0.892;2023-03-04T10:45:31;102245.95;;;7.16;62.35
62928;BME280;51070;52.236;-0.892;2023-03-04T10:47:59;102243.13;;;7.32;61.78
62928;BME280;51070;52.236;-0.892;2023-03-04T10:50:27;102242.77;;;7.47;61.13
62928;BME280;51070;52.236;-0.892;2023-03-04T10:52:53;102245.02;;;7.57;60.42
62928;BME280;51070;52.236;-0.892;2023-03-04T10:57:48;102240.58;;;7.75;60.38
62928;BME280;51070;52.236;-0.892;2023-03-04T11:02:41;102236.52;;;8.02;60.04
62928;BME280;51070;52.236;-0.892;2023-03-04T11:05:23;102234.14;;;8.13;59.74
62928;BME280;51070;52.236;-0.892;2023-03-04T11:07:50;102231.08;;;8.13;58.62
62928;BME280;51070;52.236;-0.892;2023-03-04T11:12:41;102228.23;;;8.14;58.80
62928;BME280;51070;52.236;-0.892;2023-03-04T11:15:18;102228.40;;;8.15;57.72
62928;BME280;51070;52.236;-0.892;2023-03-04T11:17:46;102227.88;;;8.14;57.78
62928;BME280;51070;52.236;-0.892;2023-03-04T11:22:41;102222.20;;;8.22;57.45
62928;BME280;51070;52.236;-0.892;2023-03-04T11:25:14;102225.39;;;8.21;57.33
62928;BME280;51070;52.236;-0.892;2023-03-04T11:27:45;102230.71;;;8.23;57.76
62928;BME280;51070;52.236;-0.892;2023-03-04T11:32:44;102227.56;;;8.25;57.69
62928;BME280;51070;52.236;-0.892;2023-03-04T11:35:15;102222.40;;;8.23;57.25
62928;BME280;51070;52.236;-0.892;2023-03-04T11:37:54;102221.45;;;8.19;57.30
62928;BME280;51070;52.236;-0.892;2023-03-04T11:40:34;102214.48;;;8.20;56.97
62928;BME280;51070;52.236;-0.892;2023-03-04T11:43:10;102209.44;;;8.22;57.18
62928;BME280;51070;52.236;-0.892;2023-03-04T11:45:51;102202.77;;;8.25;56.44
62928;BME280;51070;52.236;-0.892;2023-03-04T11:56:33;102185.50;;;8.48;56.23
62928;BME280;51070;52.236;-0.892;2023-03-04T12:07:04;102171.96;;;8.18;56.38
62928;BME280;51070;52.236;-0.892;2023-03-04T12:14:43;102168.20;;;7.99;56.28
62928;BME280;51070;52.236;-0.892;2023-03-04T12:19:51;102161.50;;;7.86;57.05
62928;BME280;51070;52.236;-0.892;2023-03-04T12:30:05;102150.74;;;7.85;57.22
62928;BME280;51070;52.236;-0.892;2023-03-04T12:35:37;102142.60;;;7.82;57.20
62928;BME280;51070;52.236;-0.892;2023-03-04T12:48:13;102134.90;;;7.70;57.04
62928;BME280;51070;52.236;-0.892;2023-03-04T12:50:53;102128.10;;;7.66;57.07
62928;BME280;51070;52.236;-0.892;2023-03-04T12:55:47;102119.34;;;7.55;56.99
62928;BME280;51070;52.236;-0.892;2023-03-04T12:58:17;102119.35;;;7.50;57.22
62928;BME280;51070;52.236;-0.892;2023-03-04T13:00:48;102116.92;;;7.48;57.19
62928;BME280;51070;52.236;-0.892;2023-03-04T13:03:21;102114.92;;;7.46;57.57
62928;BME280;51070;52.236;-0.892;2023-03-04T13:18:58;102097.52;;;7.61;57.89
62928;BME280;51070;52.236;-0.892;2023-03-04T13:21:25;102091.65;;;7.66;57.46
62928;BME280;51070;52.236;-0.892;2023-03-04T13:23:51;102084.73;;;7.66;57.36
62928;BME280;51070;52.236;-0.892;2023-03-04T13:26:26;102084.09;;;7.69;57.29
62928;BME280;51070;52.236;-0.892;2023-03-04T13:28:53;102081.63;;;7.71;56.82
62928;BME280;51070;52.236;-0.892;2023-03-04T13:31:23;102081.96;;;7.76;57.33
62928;BME280;51070;52.236;-0.892;2023-03-04T13:33:51;102080.92;;;7.83;57.03
62928;BME280;51070;52.236;-0.892;2023-03-04T13:41:49;102080.54;;;7.96;56.46
62928;BME280;51070;52.236;-0.892;2023-03-04T13:47:06;102084.42;;;8.00;56.05
62928;BME280;51070;52.236;-0.892;2023-03-04T13:49:33;102083.30;;;7.93;55.96
62928;BME280;51070;52.236;-0.892;2023-03-04T13:52:26;102082.40;;;7.88;55.83
62928;BME280;51070;52.236;-0.892;2023-03-04T13:54:44;102079.98;;;7.82;56.27
62928;BME280;51070;52.236;-0.892;2023-03-04T13:57:16;102078.80;;;7.78;56.25
62928;BME280;51070;52.236;-0.892;2023-03-04T14:02:18;102078.98;;;7.59;56.08
62928;BME280;51070;52.236;-0.892;2023-03-04T14:04:56;102079.98;;;7.51;56.61
62928;BME280;51070;52.236;-0.892;2023-03-04T14:07:35;102077.05;;;7.48;56.77
62928;BME280;51070;52.236;-0.892;2023-03-04T14:10:19;102072.09;;;7.46;56.95
62928;BME280;51070;52.236;-0.892;2023-03-04T14:12:46;102068.08;;;7.48;56.94
62928;BME280;51070;52.236;-0.892;2023-03-04T14:15:17;102062.66;;;7.49;56.95
62928;BME280;51070;52.236;-0.892;2023-03-04T14:17:45;102064.41;;;7.52;57.01
62928;BME280;51070;52.236;-0.892;2023-03-04T14:22:50;102056.38;;;7.55;56.79
62928;BME280;51070;52.236;-0.892;2023-03-04T14:25:23;102052.45;;;7.56;56.60
62928;BME280;51070;52.236;-0.892;2023-03-04T14:27:49;102050.52;;;7.58;56.80
62928;BME280;51070;52.236;-0.892;2023-03-04T14:30:19;102044.50;;;7.64;56.94
62928;BME280;51070;52.236;-0.892;2023-03-04T14:32:45;102046.88;;;7.68;56.99